createdAt,value
2019-02-05T00:01:27.129Z,24.7
2019-02-05T00:11:26.010Z,22.8
2019-02-05T00:21:26.124Z,22.5
2019-02-05T00:31:28.171Z,26.2
2019-02-05T00:41:26.006Z,26.1
2019-02-05T00:51:26.861Z,26.7
2019-02-05T01:01:26.922Z,25.5
2019-02-05T01:11:26.692Z,26.9
2019-02-05T01:21:27.155Z,25.8
2019-02-05T01:31:25.842Z,22.4
2019-02-05T01:41:26.526Z,23.4
2019-02-05T01:51:26.286Z,25.8
2019-02-05T02:01:26.032Z,25.4
2019-02-05T02:11:27.338Z,24.3
2019-02-05T02:21:26.415Z,25.0
2019-02-05T02:31:26.307Z,25.3
2019-02-05T02:41:26.513Z,24.8
2019-02-05T02:51:26.462Z,24.2
2019-02-05T03:01:32.482Z,25.3
2019-02-05T03:11:27.126Z,25.2
2019-02-05T03:21:27.508Z,21.8
2019-02-05T03:31:26.547Z,18.9
2019-02-05T03:41:26.845Z,16.9
2019-02-05T03:51:26.056Z,20.6
2019-02-05T04:01:26.123Z,18.6
2019-02-05T04:11:26.167Z,19.2
2019-02-05T04:21:26.163Z,24.4
2019-02-05T04:31:26.550Z,21.0
2019-02-05T04:41:26.640Z,22.4
2019-02-05T04:51:26.630Z,17.1
2019-02-05T05:01:27.054Z,15.4
2019-02-05T05:11:27.066Z,14.0
2019-02-05T05:21:25.973Z,14.2
2019-02-05T05:31:26.319Z,13.1
2019-02-05T05:41:26.856Z,13.8
2019-02-05T05:51:27.791Z,14.1
2019-02-05T06:01:25.796Z,13.6
2019-02-05T06:11:27.463Z,14.4
2019-02-05T06:21:28.055Z,15.5
2019-02-05T06:31:26.478Z,14.9
2019-02-05T06:41:26.913Z,16.6
2019-02-05T06:51:28.254Z,16.8
2019-02-05T07:01:26.153Z,16.9
2019-02-05T07:11:25.854Z,16.0
2019-02-05T07:21:25.872Z,18.4
2019-02-05T07:31:26.959Z,16.4
2019-02-05T07:41:26.273Z,16.2
2019-02-05T07:51:26.988Z,17.1
2019-02-05T08:01:26.352Z,15.5
2019-02-05T08:11:26.524Z,14.0
2019-02-05T08:21:26.537Z,14.7
2019-02-05T08:31:26.338Z,15.0
2019-02-05T08:41:26.440Z,13.3
2019-02-05T08:51:27.306Z,14.3
2019-02-05T09:01:26.342Z,14.2
2019-02-05T09:11:26.822Z,14.4
2019-02-05T09:21:26.584Z,15.5
2019-02-05T09:31:27.194Z,14.5
2019-02-05T09:41:27.468Z,15.2
2019-02-05T09:51:26.859Z,15.6
2019-02-05T10:01:26.839Z,15.2
2019-02-05T10:11:27.232Z,16.6
2019-02-05T10:21:26.469Z,16.4
2019-02-05T10:31:26.336Z,13.7
2019-02-05T10:41:27.350Z,14.4
2019-02-05T10:51:26.205Z,15.0
2019-02-05T11:01:27.523Z,14.3
2019-02-05T11:11:26.833Z,12.2
2019-02-05T11:21:27.330Z,11.3
2019-02-05T11:31:27.140Z,13.2
2019-02-05T11:41:27.123Z,14.1
2019-02-05T11:51:26.760Z,13.1
2019-02-05T12:01:38.043Z,11.5
2019-02-05T12:11:26.796Z,10.8
2019-02-05T12:21:25.811Z,12.9
2019-02-05T12:31:26.747Z,13.0
2019-02-05T12:41:26.558Z,10.9
2019-02-05T12:51:26.572Z,10.0
2019-02-05T13:01:26.641Z,9.3
2019-02-05T13:11:26.786Z,10.9
2019-02-05T13:21:27.146Z,13.2
2019-02-05T13:31:26.079Z,13.7
2019-02-05T13:41:28.819Z,18.4
2019-02-05T13:51:26.781Z,17.3
2019-02-05T14:01:27.887Z,17.9
2019-02-05T14:11:26.899Z,16.2
2019-02-05T14:21:25.791Z,12.9
2019-02-05T14:31:31.229Z,13.6
2019-02-05T14:41:26.618Z,15.1
2019-02-05T14:51:26.336Z,16.2
2019-02-05T15:01:27.127Z,12.9
2019-02-05T15:11:25.903Z,17.6
2019-02-05T15:21:28.356Z,18.0
2019-02-05T15:31:26.823Z,20.9
2019-02-05T15:41:26.343Z,26.0
2019-02-05T15:51:26.880Z,28.7
2019-02-05T16:01:26.889Z,30.3
2019-02-05T16:11:26.739Z,29.7
2019-02-05T16:21:25.793Z,31.9
2019-02-05T16:31:31.876Z,34.6
2019-02-05T16:41:27.120Z,30.0
2019-02-05T16:51:26.131Z,27.9
2019-02-05T17:01:26.208Z,24.0
2019-02-05T17:11:26.354Z,22.6
2019-02-05T17:21:26.150Z,22.8
2019-02-05T17:31:26.224Z,23.7
2019-02-05T17:41:25.993Z,27.5
2019-02-05T17:51:27.316Z,32.4
2019-02-05T18:01:27.234Z,43.3
2019-02-05T18:11:26.076Z,44.3
2019-02-05T18:21:26.395Z,45.5
2019-02-05T18:31:27.035Z,40.4
2019-02-05T18:41:26.573Z,35.8
2019-02-05T18:51:26.648Z,39.7
2019-02-05T19:01:26.216Z,34.5
2019-02-05T19:11:27.722Z,32.3
2019-02-05T19:21:26.529Z,32.5
2019-02-05T19:31:26.421Z,36.0
2019-02-05T19:41:26.254Z,34.5
2019-02-05T19:51:26.365Z,31.8
2019-02-05T20:01:26.784Z,31.5
2019-02-05T20:11:26.541Z,30.8
2019-02-05T20:21:26.391Z,26.9
2019-02-05T20:31:26.889Z,24.6
2019-02-05T20:41:26.909Z,24.7
2019-02-05T20:51:25.693Z,25.0
2019-02-05T21:01:26.317Z,25.5
2019-02-05T21:11:26.118Z,24.4
2019-02-05T21:21:26.436Z,27.1
2019-02-05T21:31:26.825Z,24.5
2019-02-05T21:41:27.193Z,23.7
2019-02-05T21:51:26.240Z,23.2
2019-02-05T22:01:26.293Z,23.5
2019-02-05T22:11:27.228Z,24.6
2019-02-05T22:21:26.389Z,23.4
2019-02-05T22:31:27.291Z,21.5
2019-02-05T22:41:27.242Z,22.5
2019-02-05T22:51:26.578Z,24.4
2019-02-05T23:01:26.878Z,27.3
2019-02-05T23:11:27.363Z,26.9
2019-02-05T23:21:26.401Z,28.2
2019-02-05T23:31:26.897Z,26.0
2019-02-05T23:41:27.169Z,27.0
2019-02-05T23:51:27.237Z,28.3
